LJLJLJMB

Guest
Details From LJLJ - LJUBLJANA
To LJMB - MARIBOR
Flight Number -
Tags generated
Created
Modified
Stats Distance 54 nm / 100 km
Max Altitude 5,800 ft / 1,768 m
Waypoints 3
Social Downloads 3
Likes 0
Share VATSIM

Download

Looking for another format? Having issues loading an existing format? Contact us
Advertisement - Login to hide

Notes

Basic altitude profile: - Ascent Rate: 500ft/min - Ascent Speed: 65kts - Cruise Altitude: 5500ft - Cruise Speed: 85kts - Descent Rate: 500ft/min - Descent Speed: 75kts Options: - Use NATs: yes - Use PACOTS: yes - Use low airways: yes - Use high airways: yes

Route

LJLJ ARLON LJMB

ID Type Via Altitude Latitude Longitude Leg Dist Tot Dist Heading (true) Name
O LJLJ APT - 0 ft / 0 m 46.22368˚ 14.45761˚ - 0 nm - LJUBLJANA
ARLON FIX - 5,800 ft / 1,768 m 46.41382˚ 15.02976˚ 26 nm 26 nm 64° / 65° -
O LJMB APT - 0 ft / 0 m 46.48062˚ 15.68602˚ 27 nm 53 nm 81° / 82° MARIBOR

Altitude Profile

Advertisement - Login to hide

LJLJ

Details ICAO LJLJ (LJU)
Name LJUBLJANA
Region Slovenia
Timezone Europe/Ljubljana (UTC+2.0)
Stats Elevation 1,273 ft / 388 m (AMSL)
Location 46.223685° 14.457608°
Runways 1
Magnetic Variation 3.711° E

METAR

LJLJ 202000Z 09004KT 9999 FEW050 BKN100 16/11 Q1019 NOSIG

Decode

TAF

TAF TAF LJLJ 202000Z 2021/2121 10005KT 9999 FEW050 BKN100 BECMG 2021/2023 30003KT BECMG 2108/2110 12005KT FEW040 SCT075 PROB30 TEMPO 2112/2118 FEW045TCU BKN055

Decode

Departure Runways

ID Width Length Bearing (true) Bearing (mag) Surface Threshold Offset Overrun Length
13 148 ft / 45 m 10,811 ft / 3,295 m 126.47° 122.76° Asphalt 0 ft / 0 m 0 ft / 0 m
31 148 ft / 45 m 10,811 ft / 3,295 m 306.49° 302.78° Asphalt 0 ft / 0 m 0 ft / 0 m

LJMB

Details ICAO LJMB (MBX)
Name MARIBOR
Region Slovenia
Timezone Europe/Ljubljana (UTC+2.0)
Stats Elevation 876 ft / 267 m (AMSL)
Location 46.480625° 15.686020°
Runways 2
Magnetic Variation 3.985° E

METAR

LJMB 202000Z 36007KT CAVOK 16/12 Q1020

Decode

TAF

TAF LJMB 202000Z 2021/2121 35007KT CAVOK TEMPO 2100/2108 SCT040 BECMG 2108/2110 06005KT FEW040 BECMG 2110/2112 09007KT

Decode

Destination Runways

ID Width Length Bearing (true) Bearing (mag) Surface Threshold Offset Overrun Length
15 148 ft / 45 m 8,160 ft / 2,487 m 146.19° 142.20° Asphalt 0 ft / 0 m 0 ft / 0 m
15L 197 ft / 60 m 3,941 ft / 1,201 m 146.13° 142.14° Grass 0 ft / 0 m 0 ft / 0 m
33 148 ft / 45 m 8,160 ft / 2,487 m 326.20° 322.21° Asphalt 0 ft / 0 m 0 ft / 0 m
33R 197 ft / 60 m 3,941 ft / 1,201 m 326.14° 322.15° Grass 0 ft / 0 m 0 ft / 0 m

Approach Navaids

Runway Type Ident Frequency Range Bearing (true) Bearing (mag) Slope Elevation
33 Localiser MAR 110.10 MHz 18 nm / 33 km 326.19° 322.20° - 876 ft / 267 m (AMSL)
33 Glidescope MAR 110.10 MHz 10 nm / 19 km 326.19° 322.21° 3.00° 856 ft / 261 m (AMSL)

Popular Alternatives